Terminal Aerodrome Forecast
Issued by NWS

Home | Current Version | Previous Version | Text Only | Print | Product List | Glossary On
Versions: 1 2 3 4 5 6 7 8 9 10 11 12
000
FTUS43 KFGF 271736
TAFBJI
TAF
KBJI 271736Z 2718/2818 17006KT P6SM SCT090 BKN130
     FM280200 VRB04KT P6SM VCSH BKN100
     FM280600 VRB03KT P6SM FEW080
     FM281400 04008KT P6SM SCT250=

USA.gov is the U.S. government's official web portal to all federal, state and local government web resources and services.